createdAt,value
2023-03-14T00:02:06.235Z,0.20
2023-03-14T00:04:33.018Z,0.30
2023-03-14T00:06:59.815Z,0.40
2023-03-14T00:09:27.652Z,0.30
2023-03-14T00:11:54.876Z,0.20
2023-03-14T00:14:21.682Z,0.23
2023-03-14T00:16:48.634Z,0.20
2023-03-14T00:19:15.573Z,0.30
2023-03-14T00:21:42.757Z,0.20
2023-03-14T00:24:09.878Z,0.40
2023-03-14T00:26:36.672Z,0.20
2023-03-14T00:29:03.906Z,0.20
2023-03-14T00:31:30.928Z,0.20
2023-03-14T00:33:58.248Z,0.10
2023-03-14T00:36:25.460Z,0.20
2023-03-14T00:38:52.839Z,0.27
2023-03-14T00:41:23.395Z,0.20
2023-03-14T00:43:50.718Z,0.20
2023-03-14T00:46:17.864Z,0.13
2023-03-14T00:48:46.884Z,0.10
2023-03-14T00:51:15.974Z,0.10
2023-03-14T00:53:43.833Z,0.10
2023-03-14T00:56:13.251Z,0.20
2023-03-14T00:58:40.441Z,0.20
2023-03-14T01:01:10.119Z,0.20
2023-03-14T01:03:37.061Z,0.20
2023-03-14T01:06:12.918Z,0.10
2023-03-14T01:08:40.072Z,0.20
2023-03-14T01:11:11.064Z,0.10
2023-03-14T01:13:38.759Z,0.20
2023-03-14T01:16:08.618Z,0.20
2023-03-14T01:18:36.368Z,0.20
2023-03-14T01:21:05.421Z,0.20
2023-03-14T01:23:32.239Z,0.20
2023-03-14T01:25:59.081Z,0.30
2023-03-14T01:28:25.909Z,0.20
2023-03-14T01:30:52.742Z,0.20
2023-03-14T01:33:19.576Z,0.20
2023-03-14T01:35:46.411Z,0.20
2023-03-14T01:38:13.236Z,0.20
2023-03-14T01:40:45.119Z,0.20
2023-03-14T01:43:18.173Z,0.27
2023-03-14T01:46:15.899Z,0.20
2023-03-14T01:48:46.391Z,0.20
2023-03-14T01:51:20.174Z,0.20
2023-03-14T01:53:48.801Z,0.20
2023-03-14T01:56:17.987Z,0.20
2023-03-14T01:58:47.840Z,0.10
2023-03-14T02:01:18.961Z,0.20
2023-03-14T02:03:54.771Z,0.20
2023-03-14T02:06:26.413Z,0.20
2023-03-14T02:08:54.126Z,0.40
2023-03-14T02:11:21.239Z,0.20
2023-03-14T02:13:49.460Z,0.20
2023-03-14T02:16:16.249Z,0.20
2023-03-14T02:18:43.127Z,0.20
2023-03-14T02:21:15.274Z,0.20
2023-03-14T02:23:52.550Z,0.20
2023-03-14T02:26:31.356Z,0.20
2023-03-14T02:28:59.114Z,0.20
2023-03-14T02:31:26.124Z,0.20
2023-03-14T02:33:53.799Z,0.20
2023-03-14T02:36:21.498Z,0.30
2023-03-14T02:38:55.008Z,0.20
2023-03-14T02:41:22.728Z,0.20
2023-03-14T02:43:49.568Z,0.30
2023-03-14T02:46:21.298Z,0.20
2023-03-14T02:49:02.910Z,0.20
2023-03-14T02:51:30.528Z,0.20
2023-03-14T02:53:57.401Z,0.30
2023-03-14T02:56:24.365Z,0.30
2023-03-14T02:58:51.325Z,0.20
2023-03-14T03:01:18.214Z,0.30
2023-03-14T03:03:45.184Z,0.20
2023-03-14T03:06:12.196Z,0.30
2023-03-14T03:08:39.019Z,0.20
2023-03-14T03:11:06.146Z,0.20
2023-03-14T03:13:33.144Z,0.20
2023-03-14T03:15:59.876Z,0.40
2023-03-14T03:18:26.802Z,0.27
2023-03-14T03:20:53.604Z,0.20
2023-03-14T03:23:20.414Z,0.47
2023-03-14T03:25:50.843Z,0.40
2023-03-14T03:28:17.915Z,0.20
2023-03-14T03:30:45.036Z,0.30
2023-03-14T03:33:12.606Z,0.27
2023-03-14T03:35:49.106Z,0.40
2023-03-14T03:38:16.738Z,0.30
2023-03-14T03:40:43.946Z,0.30
2023-03-14T03:43:10.857Z,0.30
2023-03-14T03:45:37.647Z,0.30
2023-03-14T03:48:04.786Z,0.30
2023-03-14T03:50:31.504Z,0.30
2023-03-14T03:52:58.333Z,0.40
2023-03-14T03:55:26.531Z,0.20
2023-03-14T03:57:53.516Z,0.20
2023-03-14T05:00:56.048Z,0.40
2023-03-14T05:03:23.076Z,0.53
2023-03-14T05:05:49.953Z,0.60
2023-03-14T05:08:16.842Z,0.40
2023-03-14T05:10:43.880Z,0.60
2023-03-14T05:13:10.700Z,0.30
2023-03-14T05:15:37.552Z,0.40
2023-03-14T05:18:04.806Z,0.67
2023-03-14T05:20:32.063Z,0.30
2023-03-14T05:22:59.128Z,0.60
2023-03-14T05:25:25.979Z,0.50
2023-03-14T05:27:55.808Z,0.53
2023-03-14T05:30:23.210Z,0.40
2023-03-14T05:32:50.059Z,0.60
2023-03-14T05:35:16.969Z,0.37
2023-03-14T05:37:43.836Z,0.30
2023-03-14T05:40:11.339Z,0.47
2023-03-14T05:42:38.485Z,0.30
2023-03-14T05:45:05.838Z,0.27
2023-03-14T05:47:32.626Z,0.73
2023-03-14T05:49:59.389Z,0.50
2023-03-14T05:52:26.161Z,0.40
2023-03-14T05:54:52.974Z,0.43
2023-03-14T05:57:19.768Z,0.43
2023-03-14T05:59:46.639Z,0.40
2023-03-14T06:02:13.475Z,0.30
2023-03-14T06:04:40.321Z,0.43
2023-03-14T06:07:07.096Z,0.30
2023-03-14T06:09:33.856Z,0.50
2023-03-14T06:12:00.742Z,0.30
2023-03-14T06:14:27.556Z,0.30
2023-03-14T06:16:54.996Z,0.30
2023-03-14T06:19:21.941Z,0.40
2023-03-14T06:21:48.668Z,0.23
2023-03-14T06:24:15.494Z,0.40
2023-03-14T06:26:42.265Z,0.30
2023-03-14T06:29:09.117Z,0.40
2023-03-14T06:31:36.104Z,0.30
2023-03-14T06:34:03.322Z,0.30
2023-03-14T06:36:30.347Z,0.30
2023-03-14T06:38:57.128Z,0.30
2023-03-14T06:41:26.878Z,0.20
2023-03-14T06:43:55.415Z,0.30
2023-03-14T06:46:23.374Z,0.30
2023-03-14T06:48:50.637Z,0.30
2023-03-14T06:51:17.781Z,0.30
2023-03-14T06:53:44.665Z,0.50
2023-03-14T06:56:11.656Z,0.50
2023-03-14T06:58:38.639Z,0.20
2023-03-14T07:01:05.872Z,0.53
2023-03-14T07:03:32.877Z,0.40
2023-03-14T07:06:00.655Z,0.40
2023-03-14T07:08:27.934Z,0.73
2023-03-14T07:10:57.691Z,0.40
2023-03-14T07:13:24.686Z,0.33
2023-03-14T07:15:51.528Z,0.20
2023-03-14T07:18:18.507Z,0.43
2023-03-14T07:20:47.419Z,0.30
2023-03-14T07:23:14.584Z,0.40
2023-03-14T07:25:41.949Z,0.30
2023-03-14T07:28:08.810Z,0.53
2023-03-14T07:30:36.066Z,0.20
2023-03-14T07:33:03.023Z,0.30
2023-03-14T07:35:29.965Z,0.40
2023-03-14T07:37:56.787Z,0.30
2023-03-14T07:40:23.771Z,0.40
2023-03-14T07:42:51.013Z,0.40
2023-03-14T07:45:18.247Z,0.50
2023-03-14T07:47:45.142Z,0.20
2023-03-14T07:50:12.078Z,0.37
2023-03-14T07:52:38.955Z,0.63
2023-03-14T07:55:06.599Z,0.60
2023-03-14T07:57:33.284Z,0.60
2023-03-14T08:00:00.116Z,0.50
2023-03-14T08:02:27.011Z,0.50
2023-03-14T08:04:53.902Z,0.60
2023-03-14T08:07:20.744Z,0.90
2023-03-14T08:09:47.668Z,0.30
2023-03-14T08:12:14.419Z,0.50
2023-03-14T08:14:41.181Z,0.40
2023-03-14T08:17:09.255Z,0.43
2023-03-14T08:19:36.167Z,0.47
2023-03-14T08:22:03.624Z,0.60
2023-03-14T08:24:30.509Z,0.40
2023-03-14T08:26:57.271Z,0.30
2023-03-14T08:29:24.075Z,0.30
2023-03-14T08:31:50.988Z,0.40
2023-03-14T08:34:17.840Z,0.40
2023-03-14T08:36:45.917Z,0.30
2023-03-14T08:39:12.828Z,0.40
2023-03-14T08:41:42.179Z,1.03
2023-03-14T08:44:09.660Z,0.60
2023-03-14T08:46:36.654Z,0.43
2023-03-14T08:49:03.827Z,0.20
2023-03-14T08:51:30.667Z,0.47
2023-03-14T08:53:57.459Z,0.30
2023-03-14T08:56:26.053Z,0.30
2023-03-14T08:58:53.106Z,0.30
2023-03-14T09:01:20.496Z,0.40
2023-03-14T09:03:49.327Z,0.37
2023-03-14T09:06:19.016Z,0.50
2023-03-14T09:08:46.748Z,0.40
2023-03-14T09:11:14.658Z,0.30
2023-03-14T09:13:42.089Z,0.80
2023-03-14T09:16:09.599Z,0.30
2023-03-14T09:18:36.839Z,0.30
2023-03-14T09:21:04.064Z,0.37
2023-03-14T09:23:31.056Z,0.30
2023-03-14T09:25:59.493Z,0.33
2023-03-14T09:28:26.472Z,0.40
2023-03-14T09:30:53.649Z,0.30
2023-03-14T09:33:20.469Z,0.40
2023-03-14T09:35:47.616Z,0.30
2023-03-14T09:38:14.581Z,0.40
2023-03-14T09:40:42.392Z,0.20
2023-03-14T09:43:15.236Z,0.40
2023-03-14T09:45:43.864Z,0.27
2023-03-14T09:48:17.596Z,0.20
2023-03-14T09:50:49.304Z,0.20
2023-03-14T09:53:20.278Z,0.30
2023-03-14T09:55:49.770Z,0.20
2023-03-14T09:58:21.629Z,0.20
2023-03-14T10:00:50.257Z,0.20
2023-03-14T10:03:21.554Z,0.30
2023-03-14T10:05:48.635Z,0.40
2023-03-14T10:08:15.591Z,0.63
2023-03-14T10:10:42.740Z,0.43
2023-03-14T10:13:19.053Z,0.30
2023-03-14T10:15:55.066Z,0.40
2023-03-14T10:18:25.717Z,0.30
2023-03-14T10:21:10.011Z,0.30
2023-03-14T10:23:38.579Z,0.20
2023-03-14T10:26:09.389Z,0.30
2023-03-14T10:28:53.436Z,0.20
2023-03-14T10:31:26.046Z,0.33
2023-03-14T10:34:01.593Z,0.53
2023-03-14T10:36:31.733Z,0.83
2023-03-14T10:39:18.906Z,0.30
2023-03-14T10:41:53.681Z,0.50
2023-03-14T10:44:24.162Z,0.80
2023-03-14T10:47:01.215Z,0.20
2023-03-14T10:49:34.465Z,0.40
2023-03-14T10:52:13.431Z,0.47
2023-03-14T10:54:40.536Z,0.60
2023-03-14T10:57:08.223Z,0.70
2023-03-14T10:59:38.545Z,0.30
2023-03-14T11:02:36.375Z,0.60
2023-03-14T11:05:21.781Z,0.20
2023-03-14T11:07:48.935Z,0.63
2023-03-14T11:10:30.880Z,0.60
2023-03-14T11:13:28.738Z,0.43
2023-03-14T11:16:01.064Z,0.40
2023-03-14T11:18:59.465Z,0.50
2023-03-14T11:21:46.892Z,0.40
2023-03-14T11:24:37.036Z,0.20
2023-03-14T11:27:19.066Z,0.30
2023-03-14T11:30:16.914Z,0.37
2023-03-14T11:32:46.209Z,0.30
2023-03-14T11:35:27.644Z,0.20
2023-03-14T11:38:12.419Z,0.30
2023-03-14T11:40:40.436Z,0.20
2023-03-14T11:43:09.355Z,1.23
2023-03-14T11:45:39.527Z,1.10
2023-03-14T11:48:38.019Z,1.00
2023-03-14T11:51:10.657Z,0.53
2023-03-14T11:53:44.543Z,0.30
2023-03-14T11:56:27.743Z,0.30
2023-03-14T11:59:10.199Z,0.27
2023-03-14T12:01:52.560Z,0.30
2023-03-14T12:04:39.080Z,0.23
2023-03-14T12:07:19.828Z,0.20
2023-03-14T12:09:48.091Z,0.30
2023-03-14T12:12:21.101Z,0.30
2023-03-14T12:14:56.014Z,0.20
2023-03-14T12:17:35.182Z,0.20
2023-03-14T12:20:07.675Z,0.20
2023-03-14T12:22:42.324Z,0.20
2023-03-14T12:25:12.540Z,0.30
2023-03-14T12:27:44.113Z,0.20
2023-03-14T12:30:18.004Z,0.30
2023-03-14T12:33:20.071Z,0.20
2023-03-14T12:35:50.369Z,0.20
2023-03-14T12:38:29.308Z,0.20
2023-03-14T12:41:22.392Z,0.27
2023-03-14T12:43:49.337Z,0.20
2023-03-14T12:46:19.515Z,0.30
2023-03-14T12:48:49.250Z,0.20
2023-03-14T12:51:18.823Z,0.20
2023-03-14T12:54:10.589Z,0.20
2023-03-14T12:56:46.643Z,0.30
2023-03-14T12:59:28.679Z,0.30
2023-03-14T13:02:14.873Z,0.20
2023-03-14T13:04:48.300Z,0.20
2023-03-14T13:07:31.336Z,0.20
2023-03-14T13:10:18.913Z,0.20
2023-03-14T13:12:52.402Z,0.30
2023-03-14T13:15:24.674Z,0.20
2023-03-14T13:17:55.508Z,0.20
2023-03-14T13:20:31.099Z,0.20
2023-03-14T13:22:58.113Z,0.20
2023-03-14T13:25:25.270Z,0.20
2023-03-14T13:27:56.627Z,0.30
2023-03-14T13:30:27.967Z,0.30
2023-03-14T13:32:56.289Z,0.40
2023-03-14T13:35:38.959Z,0.30
2023-03-14T13:38:12.251Z,0.30
2023-03-14T13:40:39.719Z,0.20
2023-03-14T13:43:15.600Z,0.30
2023-03-14T13:45:47.379Z,0.30
2023-03-14T13:48:16.465Z,0.43
2023-03-14T13:50:51.264Z,0.27
2023-03-14T13:53:18.245Z,0.50
2023-03-14T13:55:45.513Z,0.43
2023-03-14T13:58:23.324Z,0.60
2023-03-14T14:00:59.581Z,0.77
2023-03-14T14:03:27.119Z,1.30
2023-03-14T14:05:57.804Z,0.43
2023-03-14T14:08:27.837Z,0.47
2023-03-14T14:11:00.351Z,0.30
2023-03-14T14:13:30.898Z,0.30
2023-03-14T14:16:00.807Z,0.30
2023-03-14T14:18:29.738Z,0.30
2023-03-14T14:20:57.214Z,0.33
2023-03-14T14:23:29.748Z,0.30
2023-03-14T14:25:59.004Z,0.33
2023-03-14T14:28:36.076Z,0.30
2023-03-14T14:31:07.274Z,0.53
2023-03-14T14:33:42.353Z,0.50
2023-03-14T14:36:22.100Z,0.33
2023-03-14T14:38:52.643Z,0.33
2023-03-14T14:41:20.343Z,0.27
2023-03-14T14:43:47.436Z,0.30
2023-03-14T14:46:18.883Z,0.60
2023-03-14T14:48:50.118Z,0.40
2023-03-14T14:51:26.724Z,0.47
2023-03-14T14:54:10.201Z,0.30
2023-03-14T14:56:38.362Z,0.20
2023-03-14T14:59:07.805Z,0.40
2023-03-14T15:01:39.144Z,0.40
2023-03-14T15:04:15.954Z,0.40
2023-03-14T15:06:47.509Z,0.97
2023-03-14T15:09:14.485Z,0.40
2023-03-14T15:11:41.329Z,1.03
2023-03-14T15:14:08.118Z,0.30
2023-03-14T15:16:36.281Z,0.70
2023-03-14T15:19:23.536Z,0.50
2023-03-14T15:21:56.741Z,0.90
2023-03-14T15:24:24.178Z,0.20
2023-03-14T15:26:51.735Z,0.57
2023-03-14T15:29:18.970Z,0.40
2023-03-14T15:31:46.005Z,0.60
2023-03-14T15:34:12.923Z,0.30
2023-03-14T15:36:39.914Z,0.40
2023-03-14T15:39:07.836Z,0.47
2023-03-14T15:41:34.793Z,0.30
2023-03-14T15:44:02.318Z,0.63
2023-03-14T15:46:30.986Z,0.53
2023-03-14T15:48:58.273Z,0.27
2023-03-14T15:51:25.153Z,0.70
2023-03-14T15:53:52.773Z,0.53
2023-03-14T15:56:21.244Z,0.30
2023-03-14T15:58:48.301Z,0.70
2023-03-14T16:01:17.697Z,0.40
2023-03-14T16:03:46.904Z,0.40
2023-03-14T16:06:14.931Z,0.50
2023-03-14T16:08:43.458Z,0.50
2023-03-14T16:11:11.347Z,0.57
2023-03-14T16:13:38.986Z,0.40
2023-03-14T16:16:07.035Z,0.53
2023-03-14T16:18:36.277Z,0.60
2023-03-14T16:21:07.799Z,0.37
2023-03-14T16:23:35.569Z,0.30
2023-03-14T16:26:08.090Z,0.70
2023-03-14T16:28:35.222Z,0.60
2023-03-14T16:31:07.812Z,0.93
2023-03-14T16:33:35.523Z,0.37
2023-03-14T16:36:08.616Z,0.43
2023-03-14T16:38:36.775Z,0.50
2023-03-14T16:41:06.002Z,0.70
2023-03-14T16:43:37.106Z,1.00
2023-03-14T16:46:05.070Z,0.50
2023-03-14T16:48:32.352Z,0.57
2023-03-14T16:50:59.223Z,0.67
2023-03-14T16:53:29.160Z,0.60
2023-03-14T16:55:57.050Z,0.50
2023-03-14T16:58:23.761Z,0.70
2023-03-14T17:00:50.629Z,1.23
2023-03-14T17:03:18.737Z,0.53
2023-03-14T17:05:48.092Z,0.60
2023-03-14T17:08:16.533Z,0.50
2023-03-14T17:10:43.357Z,0.70
2023-03-14T17:13:10.795Z,0.60
2023-03-14T17:15:38.290Z,0.70
2023-03-14T17:18:06.048Z,1.30
2023-03-14T17:20:33.055Z,0.90
2023-03-14T17:22:59.822Z,0.77
2023-03-14T17:25:26.711Z,1.30
2023-03-14T17:27:53.717Z,0.63
2023-03-14T17:30:20.571Z,1.00
2023-03-14T17:32:47.438Z,0.53
2023-03-14T17:35:14.189Z,0.57
2023-03-14T17:37:41.392Z,0.90
2023-03-14T17:40:09.363Z,0.50
2023-03-14T17:42:36.207Z,0.80
2023-03-14T17:45:03.352Z,0.60
2023-03-14T17:47:30.390Z,0.83
2023-03-14T17:49:57.288Z,0.60
2023-03-14T17:52:25.152Z,0.63
2023-03-14T17:54:51.862Z,0.60
2023-03-14T17:57:18.707Z,0.43
2023-03-14T17:59:46.158Z,0.90
2023-03-14T18:02:14.080Z,0.90
2023-03-14T18:04:41.264Z,1.40
2023-03-14T18:07:08.186Z,0.87
2023-03-14T18:09:35.010Z,0.53
2023-03-14T18:12:08.168Z,0.50
2023-03-14T18:14:36.660Z,0.40
2023-03-14T18:17:03.651Z,0.57
2023-03-14T18:19:32.753Z,0.80
2023-03-14T18:21:59.626Z,0.90
2023-03-14T18:24:28.836Z,0.70
2023-03-14T18:26:55.864Z,0.80
2023-03-14T18:29:22.708Z,0.70
2023-03-14T18:31:49.706Z,0.67
2023-03-14T18:34:16.741Z,1.43
2023-03-14T18:36:43.629Z,1.03
2023-03-14T18:39:10.401Z,0.90
2023-03-14T18:41:37.719Z,0.87
2023-03-14T18:44:04.772Z,0.70
2023-03-14T18:46:32.111Z,1.00
2023-03-14T18:49:03.680Z,1.10
2023-03-14T18:51:33.155Z,0.50
2023-03-14T18:54:08.928Z,0.47
2023-03-14T18:56:38.087Z,0.63
2023-03-14T18:59:05.111Z,0.50
2023-03-14T19:01:34.371Z,1.10
2023-03-14T19:04:02.971Z,1.50
2023-03-14T19:06:34.066Z,1.50
2023-03-14T19:09:01.924Z,0.60
2023-03-14T19:11:29.517Z,1.00
2023-03-14T19:13:58.858Z,0.70
2023-03-14T19:16:26.171Z,1.30
2023-03-14T19:18:53.233Z,1.13
2023-03-14T19:21:35.797Z,0.80
2023-03-14T19:24:06.275Z,0.60
2023-03-14T19:26:35.386Z,0.80
2023-03-14T19:29:02.513Z,1.20
2023-03-14T19:31:29.624Z,0.83
2023-03-14T19:33:56.589Z,0.67
2023-03-14T19:36:29.827Z,0.70
2023-03-14T19:38:57.508Z,0.93
2023-03-14T19:41:25.817Z,2.10
2023-03-14T19:43:53.202Z,0.93
2023-03-14T19:46:21.730Z,1.60
2023-03-14T19:48:50.129Z,1.50
2023-03-14T19:51:17.697Z,1.50
2023-03-14T19:53:45.908Z,1.07
2023-03-14T19:56:12.805Z,2.03
2023-03-14T19:58:41.053Z,3.00
2023-03-14T20:01:08.923Z,4.70
2023-03-14T20:03:36.697Z,4.30
2023-03-14T20:06:06.679Z,3.00
2023-03-14T20:08:33.740Z,1.70
2023-03-14T20:11:05.514Z,2.57
2023-03-14T20:13:32.656Z,1.50
2023-03-14T20:15:59.769Z,1.63
2023-03-14T20:18:26.578Z,1.20
2023-03-14T20:20:53.458Z,1.13
2023-03-14T20:23:20.546Z,1.47
2023-03-14T20:25:56.108Z,1.13
2023-03-14T20:28:22.985Z,1.07
2023-03-14T20:30:50.048Z,0.90
2023-03-14T20:33:19.720Z,0.90
2023-03-14T20:35:55.311Z,0.87
2023-03-14T20:38:22.278Z,0.80
2023-03-14T20:40:49.138Z,0.70
2023-03-14T20:43:16.263Z,0.90
2023-03-14T20:45:43.033Z,0.90
2023-03-14T20:48:10.027Z,0.90
2023-03-14T20:50:36.917Z,1.07
2023-03-14T20:53:03.951Z,0.73
2023-03-14T20:55:30.766Z,1.27
2023-03-14T20:57:57.638Z,1.07
2023-03-14T21:00:24.575Z,1.20
2023-03-14T21:02:54.180Z,0.73
2023-03-14T21:05:21.702Z,1.00
2023-03-14T21:07:48.794Z,0.83
2023-03-14T21:10:16.017Z,0.93
2023-03-14T21:12:42.929Z,1.13
2023-03-14T21:15:14.337Z,1.10
2023-03-14T21:17:42.206Z,1.07
2023-03-14T21:20:12.730Z,0.50
2023-03-14T21:22:39.975Z,0.80
2023-03-14T21:25:07.325Z,1.00
2023-03-14T21:27:34.230Z,1.10
2023-03-14T21:30:01.275Z,0.80
2023-03-14T21:32:28.252Z,1.60
2023-03-14T21:34:55.168Z,0.97
2023-03-14T21:37:22.535Z,1.00
2023-03-14T21:39:49.424Z,0.77
2023-03-14T21:42:16.230Z,2.20
2023-03-14T21:44:48.717Z,3.70
2023-03-14T21:47:17.093Z,3.60
2023-03-14T21:49:44.833Z,1.80
2023-03-14T21:52:14.330Z,4.23
2023-03-14T21:54:44.869Z,1.80
2023-03-14T21:57:14.360Z,2.70
2023-03-14T21:59:42.927Z,1.80
2023-03-14T22:02:16.247Z,1.13
2023-03-14T22:04:43.558Z,1.17
2023-03-14T22:07:14.053Z,1.00
2023-03-14T22:09:44.438Z,1.13
2023-03-14T22:12:17.604Z,0.70
2023-03-14T22:14:44.821Z,0.73
2023-03-14T22:17:11.726Z,1.10
2023-03-14T22:19:38.843Z,1.10
2023-03-14T22:22:05.966Z,1.00
2023-03-14T22:24:32.912Z,1.00
2023-03-14T22:26:59.653Z,0.77
2023-03-14T22:29:26.479Z,0.80
2023-03-14T22:31:53.424Z,1.00
2023-03-14T22:34:21.427Z,0.90
2023-03-14T22:36:48.362Z,0.80
2023-03-14T22:39:15.158Z,1.10
2023-03-14T22:41:41.918Z,0.60
2023-03-14T22:44:08.689Z,0.70
2023-03-14T22:46:35.571Z,0.80
2023-03-14T22:49:02.341Z,1.03
2023-03-14T22:51:29.174Z,1.03
2023-03-14T22:53:56.091Z,1.30
2023-03-14T22:56:23.058Z,1.80
2023-03-14T22:58:49.781Z,2.90
2023-03-14T23:01:16.641Z,2.43
2023-03-14T23:03:43.503Z,1.40
2023-03-14T23:06:10.719Z,0.80
2023-03-14T23:08:38.131Z,0.70
2023-03-14T23:11:06.736Z,0.40
2023-03-14T23:13:34.471Z,0.90
2023-03-14T23:16:02.014Z,0.83
2023-03-14T23:18:29.486Z,1.07
2023-03-14T23:21:14.260Z,0.70
2023-03-14T23:23:42.729Z,0.80
2023-03-14T23:26:10.981Z,1.03
2023-03-14T23:28:38.163Z,1.00
2023-03-14T23:31:06.448Z,1.17
2023-03-14T23:33:35.030Z,1.53
2023-03-14T23:36:04.244Z,2.27
2023-03-14T23:38:32.492Z,2.27
2023-03-14T23:41:00.697Z,2.00
2023-03-14T23:43:28.532Z,2.13
2023-03-14T23:45:57.182Z,1.83
2023-03-14T23:48:27.587Z,2.27
2023-03-14T23:50:55.591Z,1.70
2023-03-14T23:53:23.780Z,2.30
2023-03-14T23:55:50.560Z,1.80
2023-03-14T23:58:17.641Z,2.60
